sensor_id;sensor_type;location;lat;lon;timestamp;temperature;humidity
13488;DHT22;6816;48.506;9.050;2023-08-01T00:01:36;19.60;99.90
13488;DHT22;6816;48.506;9.050;2023-08-01T00:04:37;19.60;99.90
13488;DHT22;6816;48.506;9.050;2023-08-01T00:07:37;19.60;99.90
13488;DHT22;6816;48.506;9.050;2023-08-01T00:10:39;19.50;99.90
13488;DHT22;6816;48.506;9.050;2023-08-01T00:13:40;19.60;99.90
13488;DHT22;6816;48.506;9.050;2023-08-01T00:16:40;19.50;99.90
13488;DHT22;6816;48.506;9.050;2023-08-01T00:19:41;19.50;99.90
13488;DHT22;6816;48.506;9.050;2023-08-01T00:22:42;19.50;99.90
13488;DHT22;6816;48.506;9.050;2023-08-01T00:25:43;19.50;99.90
13488;DHT22;6816;48.506;9.050;2023-08-01T00:28:43;19.50;99.90
13488;DHT22;6816;48.506;9.050;2023-08-01T00:31:44;19.60;99.90
13488;DHT22;6816;48.506;9.050;2023-08-01T00:34:44;19.50;99.90
13488;DHT22;6816;48.506;9.050;2023-08-01T00:37:45;19.50;99.90
13488;DHT22;6816;48.506;9.050;2023-08-01T00:40:46;19.50;99.90
13488;DHT22;6816;48.506;9.050;2023-08-01T00:43:47;19.50;99.90
13488;DHT22;6816;48.506;9.050;2023-08-01T00:46:47;19.50;99.90
13488;DHT22;6816;48.506;9.050;2023-08-01T00:49:49;19.50;99.90
13488;DHT22;6816;48.506;9.050;2023-08-01T00:52:51;19.50;99.90
13488;DHT22;6816;48.506;9.050;2023-08-01T00:55:52;19.50;99.90
13488;DHT22;6816;48.506;9.050;2023-08-01T00:58:54;19.50;99.90
13488;DHT22;6816;48.506;9.050;2023-08-01T01:01:55;19.50;99.90
13488;DHT22;6816;48.506;9.050;2023-08-01T01:04:56;19.50;99.90
13488;DHT22;6816;48.506;9.050;2023-08-01T01:07:56;19.50;99.90
13488;DHT22;6816;48.506;9.050;2023-08-01T01:10:57;19.40;99.90
13488;DHT22;6816;48.506;9.050;2023-08-01T01:13:58;19.60;99.90
13488;DHT22;6816;48.506;9.050;2023-08-01T01:16:59;19.60;99.90
13488;DHT22;6816;48.506;9.050;2023-08-01T01:20:00;19.50;99.90
13488;DHT22;6816;48.506;9.050;2023-08-01T01:23:01;19.60;99.90
13488;DHT22;6816;48.506;9.050;2023-08-01T01:26:04;19.60;99.90
13488;DHT22;6816;48.506;9.050;2023-08-01T01:29:07;19.60;99.90
13488;DHT22;6816;48.506;9.050;2023-08-01T01:32:11;19.60;99.90
13488;DHT22;6816;48.506;9.050;2023-08-01T01:35:12;19.60;99.90
13488;DHT22;6816;48.506;9.050;2023-08-01T01:38:13;19.60;99.90
13488;DHT22;6816;48.506;9.050;2023-08-01T01:41:13;19.60;99.90
13488;DHT22;6816;48.506;9.050;2023-08-01T01:44:14;19.60;99.90
13488;DHT22;6816;48.506;9.050;2023-08-01T01:47:14;19.60;99.90
13488;DHT22;6816;48.506;9.050;2023-08-01T01:50:16;19.60;99.90
13488;DHT22;6816;48.506;9.050;2023-08-01T01:53:18;19.60;99.90
13488;DHT22;6816;48.506;9.050;2023-08-01T01:56:18;19.70;99.90
13488;DHT22;6816;48.506;9.050;2023-08-01T01:59:19;19.60;99.90
13488;DHT22;6816;48.506;9.050;2023-08-01T02:02:19;19.60;99.90
13488;DHT22;6816;48.506;9.050;2023-08-01T02:05:20;19.50;99.90
13488;DHT22;6816;48.506;9.050;2023-08-01T02:08:21;19.60;99.90
13488;DHT22;6816;48.506;9.050;2023-08-01T02:11:21;19.60;99.90
13488;DHT22;6816;48.506;9.050;2023-08-01T02:14:22;19.60;99.90
13488;DHT22;6816;48.506;9.050;2023-08-01T02:17:22;19.60;99.90
13488;DHT22;6816;48.506;9.050;2023-08-01T02:20:23;19.70;99.90
13488;DHT22;6816;48.506;9.050;2023-08-01T02:23:23;19.60;99.90
13488;DHT22;6816;48.506;9.050;2023-08-01T02:26:24;19.60;99.90
13488;DHT22;6816;48.506;9.050;2023-08-01T02:29:25;19.60;99.90
13488;DHT22;6816;48.506;9.050;2023-08-01T02:32:25;19.60;99.90
13488;DHT22;6816;48.506;9.050;2023-08-01T02:35:26;19.60;99.90
13488;DHT22;6816;48.506;9.050;2023-08-01T02:38:28;19.60;99.90
13488;DHT22;6816;48.506;9.050;2023-08-01T02:41:29;19.60;99.90
13488;DHT22;6816;48.506;9.050;2023-08-01T02:44:30;19.60;99.90
13488;DHT22;6816;48.506;9.050;2023-08-01T02:47:30;19.60;99.90
13488;DHT22;6816;48.506;9.050;2023-08-01T02:50:31;19.60;99.90
13488;DHT22;6816;48.506;9.050;2023-08-01T02:53:32;19.60;99.90
13488;DHT22;6816;48.506;9.050;2023-08-01T02:56:32;19.70;99.90
13488;DHT22;6816;48.506;9.050;2023-08-01T02:59:33;19.70;99.90
13488;DHT22;6816;48.506;9.050;2023-08-01T03:02:33;19.70;99.90
13488;DHT22;6816;48.506;9.050;2023-08-01T03:05:37;19.70;99.90
13488;DHT22;6816;48.506;9.050;2023-08-01T03:08:38;19.60;99.90
13488;DHT22;6816;48.506;9.050;2023-08-01T03:11:38;19.60;99.90
13488;DHT22;6816;48.506;9.050;2023-08-01T03:14:39;19.60;99.90
13488;DHT22;6816;48.506;9.050;2023-08-01T03:17:41;19.70;99.90
13488;DHT22;6816;48.506;9.050;2023-08-01T03:20:42;19.70;99.90
13488;DHT22;6816;48.506;9.050;2023-08-01T03:23:43;19.70;99.90
13488;DHT22;6816;48.506;9.050;2023-08-01T03:26:43;19.70;99.90
13488;DHT22;6816;48.506;9.050;2023-08-01T03:29:44;19.70;99.90
13488;DHT22;6816;48.506;9.050;2023-08-01T03:32:44;19.70;99.90
13488;DHT22;6816;48.506;9.050;2023-08-01T03:35:45;19.80;99.90
13488;DHT22;6816;48.506;9.050;2023-08-01T03:38:45;19.80;99.90
13488;DHT22;6816;48.506;9.050;2023-08-01T03:41:46;19.70;99.90
13488;DHT22;6816;48.506;9.050;2023-08-01T03:44:46;19.80;99.90
13488;DHT22;6816;48.506;9.050;2023-08-01T03:47:47;19.80;99.90
13488;DHT22;6816;48.506;9.050;2023-08-01T03:50:48;19.80;99.90
13488;DHT22;6816;48.506;9.050;2023-08-01T03:53:48;19.80;99.90
13488;DHT22;6816;48.506;9.050;2023-08-01T03:56:49;19.90;99.90
13488;DHT22;6816;48.506;9.050;2023-08-01T03:59:49;19.90;99.90
13488;DHT22;6816;48.506;9.050;2023-08-01T04:02:50;19.80;99.90
13488;DHT22;6816;48.506;9.050;2023-08-01T04:05:51;19.80;99.90
13488;DHT22;6816;48.506;9.050;2023-08-01T04:08:51;19.80;99.90
13488;DHT22;6816;48.506;9.050;2023-08-01T04:11:52;19.90;99.90
13488;DHT22;6816;48.506;9.050;2023-08-01T04:14:53;19.90;99.90
13488;DHT22;6816;48.506;9.050;2023-08-01T04:17:54;19.90;99.90
13488;DHT22;6816;48.506;9.050;2023-08-01T04:20:54;20.00;99.90
13488;DHT22;6816;48.506;9.050;2023-08-01T04:23:55;20.00;99.90
13488;DHT22;6816;48.506;9.050;2023-08-01T04:26:55;20.00;99.90
13488;DHT22;6816;48.506;9.050;2023-08-01T04:29:56;20.10;99.90
13488;DHT22;6816;48.506;9.050;2023-08-01T04:32:56;20.10;99.90
13488;DHT22;6816;48.506;9.050;2023-08-01T04:35:57;20.20;99.90
13488;DHT22;6816;48.506;9.050;2023-08-01T04:38:58;20.20;99.90
13488;DHT22;6816;48.506;9.050;2023-08-01T04:41:58;20.20;99.90
13488;DHT22;6816;48.506;9.050;2023-08-01T04:44:59;20.30;99.90
13488;DHT22;6816;48.506;9.050;2023-08-01T04:47:59;20.30;99.90
13488;DHT22;6816;48.506;9.050;2023-08-01T04:51:00;20.30;99.90
13488;DHT22;6816;48.506;9.050;2023-08-01T04:54:00;20.40;99.90
13488;DHT22;6816;48.506;9.050;2023-08-01T04:57:01;20.40;99.90
13488;DHT22;6816;48.506;9.050;2023-08-01T05:00:03;20.40;99.90
13488;DHT22;6816;48.506;9.050;2023-08-01T05:03:04;20.40;99.90
13488;DHT22;6816;48.506;9.050;2023-08-01T05:06:04;20.40;99.90
13488;DHT22;6816;48.506;9.050;2023-08-01T05:09:05;20.40;99.90
13488;DHT22;6816;48.506;9.050;2023-08-01T05:12:07;20.40;99.90
13488;DHT22;6816;48.506;9.050;2023-08-01T05:15:09;20.40;99.90
13488;DHT22;6816;48.506;9.050;2023-08-01T05:18:10;20.40;99.90
13488;DHT22;6816;48.506;9.050;2023-08-01T05:21:10;20.40;99.90
13488;DHT22;6816;48.506;9.050;2023-08-01T05:24:11;20.40;99.90
13488;DHT22;6816;48.506;9.050;2023-08-01T05:27:11;20.50;99.90
13488;DHT22;6816;48.506;9.050;2023-08-01T05:30:12;20.50;99.90
13488;DHT22;6816;48.506;9.050;2023-08-01T05:33:13;20.50;99.90
13488;DHT22;6816;48.506;9.050;2023-08-01T05:36:13;20.50;99.90
13488;DHT22;6816;48.506;9.050;2023-08-01T05:39:14;20.60;99.90
13488;DHT22;6816;48.506;9.050;2023-08-01T05:42:14;20.60;99.90
13488;DHT22;6816;48.506;9.050;2023-08-01T05:45:15;20.70;99.90
13488;DHT22;6816;48.506;9.050;2023-08-01T05:48:16;20.70;99.90
13488;DHT22;6816;48.506;9.050;2023-08-01T05:51:16;20.70;99.90
13488;DHT22;6816;48.506;9.050;2023-08-01T05:54:17;20.80;99.90
13488;DHT22;6816;48.506;9.050;2023-08-01T05:57:17;20.90;99.90
13488;DHT22;6816;48.506;9.050;2023-08-01T06:00:19;21.00;99.90
13488;DHT22;6816;48.506;9.050;2023-08-01T06:03:22;21.00;99.90
13488;DHT22;6816;48.506;9.050;2023-08-01T06:06:23;21.10;99.90
13488;DHT22;6816;48.506;9.050;2023-08-01T06:09:23;21.20;99.90
13488;DHT22;6816;48.506;9.050;2023-08-01T06:12:24;21.30;99.90
13488;DHT22;6816;48.506;9.050;2023-08-01T06:15:25;21.30;99.90
13488;DHT22;6816;48.506;9.050;2023-08-01T06:18:26;21.30;99.90
13488;DHT22;6816;48.506;9.050;2023-08-01T06:21:26;21.40;99.90
13488;DHT22;6816;48.506;9.050;2023-08-01T06:24:27;21.40;99.90
13488;DHT22;6816;48.506;9.050;2023-08-01T06:27:28;21.40;99.80
13488;DHT22;6816;48.506;9.050;2023-08-01T06:30:28;21.40;99.70
13488;DHT22;6816;48.506;9.050;2023-08-01T06:33:29;21.40;99.50
13488;DHT22;6816;48.506;9.050;2023-08-01T06:36:29;21.40;99.30
13488;DHT22;6816;48.506;9.050;2023-08-01T06:39:30;21.40;99.50
13488;DHT22;6816;48.506;9.050;2023-08-01T06:42:31;21.40;99.60
13488;DHT22;6816;48.506;9.050;2023-08-01T06:45:31;21.40;99.50
13488;DHT22;6816;48.506;9.050;2023-08-01T06:48:32;21.40;99.40
13488;DHT22;6816;48.506;9.050;2023-08-01T06:51:35;21.40;99.30
13488;DHT22;6816;48.506;9.050;2023-08-01T06:54:35;21.40;99.00
13488;DHT22;6816;48.506;9.050;2023-08-01T06:57:36;21.50;99.10
13488;DHT22;6816;48.506;9.050;2023-08-01T07:00:36;21.40;99.10
13488;DHT22;6816;48.506;9.050;2023-08-01T07:03:37;21.40;99.00
13488;DHT22;6816;48.506;9.050;2023-08-01T07:06:37;21.50;98.90
13488;DHT22;6816;48.506;9.050;2023-08-01T07:09:38;21.40;98.70
13488;DHT22;6816;48.506;9.050;2023-08-01T07:12:39;21.50;98.80
13488;DHT22;6816;48.506;9.050;2023-08-01T07:15:40;21.50;98.80
13488;DHT22;6816;48.506;9.050;2023-08-01T07:18:40;21.50;98.70
13488;DHT22;6816;48.506;9.050;2023-08-01T07:21:41;21.60;98.50
13488;DHT22;6816;48.506;9.050;2023-08-01T07:24:41;21.60;98.40
13488;DHT22;6816;48.506;9.050;2023-08-01T07:27:42;21.70;98.30
13488;DHT22;6816;48.506;9.050;2023-08-01T07:30:43;21.70;98.30
13488;DHT22;6816;48.506;9.050;2023-08-01T07:33:43;21.80;98.30
13488;DHT22;6816;48.506;9.050;2023-08-01T07:36:47;21.80;98.20
13488;DHT22;6816;48.506;9.050;2023-08-01T07:39:49;21.90;97.70
13488;DHT22;6816;48.506;9.050;2023-08-01T07:42:50;21.90;97.90
13488;DHT22;6816;48.506;9.050;2023-08-01T07:45:58;22.00;98.20
13488;DHT22;6816;48.506;9.050;2023-08-01T07:48:59;22.00;97.10
13488;DHT22;6816;48.506;9.050;2023-08-01T07:51:59;22.00;97.50
13488;DHT22;6816;48.506;9.050;2023-08-01T07:55:00;22.00;97.30
13488;DHT22;6816;48.506;9.050;2023-08-01T07:58:01;22.00;97.40
13488;DHT22;6816;48.506;9.050;2023-08-01T08:01:08;21.90;97.30
13488;DHT22;6816;48.506;9.050;2023-08-01T08:04:08;21.90;96.70
13488;DHT22;6816;48.506;9.050;2023-08-01T08:07:09;21.80;97.50
13488;DHT22;6816;48.506;9.050;2023-08-01T08:10:09;21.70;97.60
13488;DHT22;6816;48.506;9.050;2023-08-01T08:13:10;21.50;97.50
13488;DHT22;6816;48.506;9.050;2023-08-01T08:16:11;21.30;97.60
13488;DHT22;6816;48.506;9.050;2023-08-01T08:19:11;21.10;97.80
13488;DHT22;6816;48.506;9.050;2023-08-01T08:22:12;20.90;98.40
13488;DHT22;6816;48.506;9.050;2023-08-01T08:25:12;20.70;98.60
13488;DHT22;6816;48.506;9.050;2023-08-01T08:28:13;20.60;99.10
13488;DHT22;6816;48.506;9.050;2023-08-01T08:31:14;20.40;99.70
13488;DHT22;6816;48.506;9.050;2023-08-01T08:34:15;20.30;99.90
13488;DHT22;6816;48.506;9.050;2023-08-01T08:37:15;20.20;99.90
13488;DHT22;6816;48.506;9.050;2023-08-01T08:40:16;20.10;99.90
13488;DHT22;6816;48.506;9.050;2023-08-01T08:43:17;20.00;99.90
13488;DHT22;6816;48.506;9.050;2023-08-01T08:46:20;20.00;99.90
13488;DHT22;6816;48.506;9.050;2023-08-01T08:49:23;19.90;99.90
13488;DHT22;6816;48.506;9.050;2023-08-01T08:52:25;20.00;99.90
13488;DHT22;6816;48.506;9.050;2023-08-01T08:55:27;19.90;99.90
13488;DHT22;6816;48.506;9.050;2023-08-01T08:58:31;19.90;99.90
13488;DHT22;6816;48.506;9.050;2023-08-01T09:01:32;19.80;99.90
13488;DHT22;6816;48.506;9.050;2023-08-01T09:04:33;19.80;99.90
13488;DHT22;6816;48.506;9.050;2023-08-01T09:07:34;19.80;99.90
13488;DHT22;6816;48.506;9.050;2023-08-01T09:10:38;19.80;99.90
13488;DHT22;6816;48.506;9.050;2023-08-01T09:13:39;19.80;99.90
13488;DHT22;6816;48.506;9.050;2023-08-01T09:16:40;19.80;99.90
13488;DHT22;6816;48.506;9.050;2023-08-01T09:19:41;19.90;99.90
13488;DHT22;6816;48.506;9.050;2023-08-01T09:22:46;20.00;99.90
13488;DHT22;6816;48.506;9.050;2023-08-01T09:25:46;20.00;99.90
13488;DHT22;6816;48.506;9.050;2023-08-01T09:28:57;20.00;99.90
13488;DHT22;6816;48.506;9.050;2023-08-01T09:31:57;20.10;99.90
13488;DHT22;6816;48.506;9.050;2023-08-01T09:34:59;20.20;99.90
13488;DHT22;6816;48.506;9.050;2023-08-01T09:38:01;20.30;99.90
13488;DHT22;6816;48.506;9.050;2023-08-01T09:41:02;20.40;99.90
13488;DHT22;6816;48.506;9.050;2023-08-01T09:44:03;20.40;99.90
13488;DHT22;6816;48.506;9.050;2023-08-01T09:47:05;20.40;99.90
13488;DHT22;6816;48.506;9.050;2023-08-01T09:50:19;20.50;99.90
13488;DHT22;6816;48.506;9.050;2023-08-01T09:53:20;20.50;99.90
13488;DHT22;6816;48.506;9.050;2023-08-01T09:56:25;20.50;99.90
13488;DHT22;6816;48.506;9.050;2023-08-01T09:59:26;20.40;99.90
13488;DHT22;6816;48.506;9.050;2023-08-01T10:02:30;20.40;99.90
13488;DHT22;6816;48.506;9.050;2023-08-01T10:05:34;20.40;99.90
13488;DHT22;6816;48.506;9.050;2023-08-01T10:08:36;20.40;99.90
13488;DHT22;6816;48.506;9.050;2023-08-01T10:11:38;20.50;99.90
13488;DHT22;6816;48.506;9.050;2023-08-01T10:14:40;20.40;99.90
13488;DHT22;6816;48.506;9.050;2023-08-01T10:17:41;20.40;99.90
13488;DHT22;6816;48.506;9.050;2023-08-01T10:20:43;20.30;99.90
13488;DHT22;6816;48.506;9.050;2023-08-01T10:23:46;20.30;99.90
13488;DHT22;6816;48.506;9.050;2023-08-01T10:26:47;20.30;99.90
13488;DHT22;6816;48.506;9.050;2023-08-01T10:29:58;20.30;99.90
13488;DHT22;6816;48.506;9.050;2023-08-01T10:33:00;20.30;99.90
13488;DHT22;6816;48.506;9.050;2023-08-01T10:36:01;20.30;99.90
13488;DHT22;6816;48.506;9.050;2023-08-01T10:39:21;20.30;99.90
13488;DHT22;6816;48.506;9.050;2023-08-01T10:42:22;20.40;99.90
13488;DHT22;6816;48.506;9.050;2023-08-01T10:45:23;20.40;99.90
13488;DHT22;6816;48.506;9.050;2023-08-01T10:48:24;20.50;99.90
13488;DHT22;6816;48.506;9.050;2023-08-01T10:51:34;20.70;99.90
13488;DHT22;6816;48.506;9.050;2023-08-01T10:54:36;20.90;99.90
13488;DHT22;6816;48.506;9.050;2023-08-01T10:57:56;21.00;99.90
13488;DHT22;6816;48.506;9.050;2023-08-01T11:01:16;21.10;99.90
13488;DHT22;6816;48.506;9.050;2023-08-01T11:04:21;21.20;99.90
13488;DHT22;6816;48.506;9.050;2023-08-01T11:07:22;21.30;99.90
13488;DHT22;6816;48.506;9.050;2023-08-01T11:10:25;21.40;99.90
13488;DHT22;6816;48.506;9.050;2023-08-01T11:13:26;21.50;99.90
13488;DHT22;6816;48.506;9.050;2023-08-01T11:16:27;21.50;99.90
13488;DHT22;6816;48.506;9.050;2023-08-01T11:19:31;21.70;99.90
13488;DHT22;6816;48.506;9.050;2023-08-01T11:22:32;21.60;99.90
13488;DHT22;6816;48.506;9.050;2023-08-01T11:25:36;21.70;99.90
13488;DHT22;6816;48.506;9.050;2023-08-01T11:28:37;21.80;99.90
13488;DHT22;6816;48.506;9.050;2023-08-01T11:31:39;21.80;99.90
13488;DHT22;6816;48.506;9.050;2023-08-01T11:34:42;21.90;99.90
13488;DHT22;6816;48.506;9.050;2023-08-01T11:37:44;21.90;99.90
13488;DHT22;6816;48.506;9.050;2023-08-01T11:40:46;21.90;99.90
13488;DHT22;6816;48.506;9.050;2023-08-01T11:43:49;21.90;99.90
13488;DHT22;6816;48.506;9.050;2023-08-01T11:46:51;21.90;99.90
13488;DHT22;6816;48.506;9.050;2023-08-01T11:49:52;21.90;99.90
13488;DHT22;6816;48.506;9.050;2023-08-01T11:52:53;21.90;99.90
13488;DHT22;6816;48.506;9.050;2023-08-01T11:55:54;21.80;99.90
13488;DHT22;6816;48.506;9.050;2023-08-01T11:58:57;21.80;99.90
13488;DHT22;6816;48.506;9.050;2023-08-01T12:01:57;21.80;99.90
13488;DHT22;6816;48.506;9.050;2023-08-01T12:04:58;21.80;99.90
13488;DHT22;6816;48.506;9.050;2023-08-01T12:08:31;21.80;99.90
13488;DHT22;6816;48.506;9.050;2023-08-01T12:11:33;21.80;99.90
13488;DHT22;6816;48.506;9.050;2023-08-01T12:14:33;21.80;99.90
13488;DHT22;6816;48.506;9.050;2023-08-01T12:17:34;21.80;99.90
13488;DHT22;6816;48.506;9.050;2023-08-01T12:20:34;21.80;99.90
13488;DHT22;6816;48.506;9.050;2023-08-01T12:23:36;21.80;99.90
13488;DHT22;6816;48.506;9.050;2023-08-01T12:26:36;21.70;99.90
13488;DHT22;6816;48.506;9.050;2023-08-01T12:29:37;21.60;99.90
13488;DHT22;6816;48.506;9.050;2023-08-01T12:32:37;21.70;99.90
13488;DHT22;6816;48.506;9.050;2023-08-01T12:35:41;21.70;99.90
13488;DHT22;6816;48.506;9.050;2023-08-01T12:38:42;21.70;99.90
13488;DHT22;6816;48.506;9.050;2023-08-01T12:41:42;21.80;99.90
13488;DHT22;6816;48.506;9.050;2023-08-01T12:44:43;21.90;99.90
13488;DHT22;6816;48.506;9.050;2023-08-01T12:47:44;21.90;99.90
13488;DHT22;6816;48.506;9.050;2023-08-01T12:50:45;22.10;99.90
13488;DHT22;6816;48.506;9.050;2023-08-01T12:53:46;22.20;99.90
13488;DHT22;6816;48.506;9.050;2023-08-01T12:56:48;22.30;99.90
13488;DHT22;6816;48.506;9.050;2023-08-01T12:59:49;22.50;99.90
13488;DHT22;6816;48.506;9.050;2023-08-01T13:02:49;22.60;99.90
13488;DHT22;6816;48.506;9.050;2023-08-01T13:05:50;22.70;99.90
13488;DHT22;6816;48.506;9.050;2023-08-01T13:08:53;22.70;99.90
13488;DHT22;6816;48.506;9.050;2023-08-01T13:11:53;22.80;99.90
13488;DHT22;6816;48.506;9.050;2023-08-01T13:14:54;22.80;99.90
13488;DHT22;6816;48.506;9.050;2023-08-01T13:17:55;22.90;99.90
13488;DHT22;6816;48.506;9.050;2023-08-01T13:20:57;22.90;99.90
13488;DHT22;6816;48.506;9.050;2023-08-01T13:23:58;23.00;99.90
13488;DHT22;6816;48.506;9.050;2023-08-01T13:26:58;23.00;99.90
13488;DHT22;6816;48.506;9.050;2023-08-01T13:29:59;23.10;99.90
13488;DHT22;6816;48.506;9.050;2023-08-01T13:33:00;23.20;99.90
13488;DHT22;6816;48.506;9.050;2023-08-01T13:36:00;23.30;99.90
13488;DHT22;6816;48.506;9.050;2023-08-01T13:39:01;23.40;99.90
13488;DHT22;6816;48.506;9.050;2023-08-01T13:42:02;23.50;99.90
13488;DHT22;6816;48.506;9.050;2023-08-01T13:45:03;23.50;99.90
13488;DHT22;6816;48.506;9.050;2023-08-01T13:48:04;23.60;99.90
13488;DHT22;6816;48.506;9.050;2023-08-01T13:51:04;23.70;99.90
13488;DHT22;6816;48.506;9.050;2023-08-01T13:54:05;23.80;99.90
13488;DHT22;6816;48.506;9.050;2023-08-01T13:57:06;23.90;99.90
13488;DHT22;6816;48.506;9.050;2023-08-01T14:00:07;23.90;99.90
13488;DHT22;6816;48.506;9.050;2023-08-01T14:03:08;24.00;99.80
13488;DHT22;6816;48.506;9.050;2023-08-01T14:06:13;24.00;99.60
13488;DHT22;6816;48.506;9.050;2023-08-01T14:09:14;24.00;99.10
13488;DHT22;6816;48.506;9.050;2023-08-01T14:12:14;24.00;99.40
13488;DHT22;6816;48.506;9.050;2023-08-01T14:15:19;24.10;98.90
13488;DHT22;6816;48.506;9.050;2023-08-01T14:18:20;24.10;99.20
13488;DHT22;6816;48.506;9.050;2023-08-01T14:21:21;24.20;98.90
13488;DHT22;6816;48.506;9.050;2023-08-01T14:24:21;24.30;98.80
13488;DHT22;6816;48.506;9.050;2023-08-01T14:27:22;24.50;98.70
13488;DHT22;6816;48.506;9.050;2023-08-01T14:30:23;24.60;98.30
13488;DHT22;6816;48.506;9.050;2023-08-01T14:33:23;24.70;97.70
13488;DHT22;6816;48.506;9.050;2023-08-01T14:36:24;24.70;97.20
13488;DHT22;6816;48.506;9.050;2023-08-01T14:39:24;24.70;96.90
13488;DHT22;6816;48.506;9.050;2023-08-01T14:42:25;24.80;97.70
13488;DHT22;6816;48.506;9.050;2023-08-01T14:45:25;24.90;97.70
13488;DHT22;6816;48.506;9.050;2023-08-01T14:48:26;25.20;97.30
13488;DHT22;6816;48.506;9.050;2023-08-01T14:51:27;25.30;97.00
13488;DHT22;6816;48.506;9.050;2023-08-01T14:54:28;25.50;96.80
13488;DHT22;6816;48.506;9.050;2023-08-01T14:57:28;25.70;96.80
13488;DHT22;6816;48.506;9.050;2023-08-01T15:00:29;25.90;96.60
13488;DHT22;6816;48.506;9.050;2023-08-01T15:03:29;26.10;96.40
13488;DHT22;6816;48.506;9.050;2023-08-01T15:06:30;26.30;95.50
13488;DHT22;6816;48.506;9.050;2023-08-01T15:09:30;26.30;94.50
13488;DHT22;6816;48.506;9.050;2023-08-01T15:12:31;26.30;93.60
13488;DHT22;6816;48.506;9.050;2023-08-01T15:15:36;26.20;93.10
13488;DHT22;6816;48.506;9.050;2023-08-01T15:18:37;26.10;91.40
13488;DHT22;6816;48.506;9.050;2023-08-01T15:21:38;26.00;92.80
13488;DHT22;6816;48.506;9.050;2023-08-01T15:24:38;25.90;92.60
13488;DHT22;6816;48.506;9.050;2023-08-01T15:27:39;25.80;92.60
13488;DHT22;6816;48.506;9.050;2023-08-01T15:30:39;25.70;92.40
13488;DHT22;6816;48.506;9.050;2023-08-01T15:33:41;25.60;92.20
13488;DHT22;6816;48.506;9.050;2023-08-01T15:36:46;25.40;92.00
13488;DHT22;6816;48.506;9.050;2023-08-01T15:39:47;25.30;90.90
13488;DHT22;6816;48.506;9.050;2023-08-01T15:42:48;25.20;91.80
13488;DHT22;6816;48.506;9.050;2023-08-01T15:45:48;25.00;91.80
13488;DHT22;6816;48.506;9.050;2023-08-01T15:48:49;24.90;92.00
13488;DHT22;6816;48.506;9.050;2023-08-01T15:51:50;24.80;92.20
13488;DHT22;6816;48.506;9.050;2023-08-01T15:54:50;24.80;92.60
13488;DHT22;6816;48.506;9.050;2023-08-01T15:57:51;24.80;93.00
13488;DHT22;6816;48.506;9.050;2023-08-01T16:00:51;24.80;92.70
13488;DHT22;6816;48.506;9.050;2023-08-01T16:03:52;24.90;92.70
13488;DHT22;6816;48.506;9.050;2023-08-01T16:06:52;25.00;92.80
13488;DHT22;6816;48.506;9.050;2023-08-01T16:09:53;25.10;92.70
13488;DHT22;6816;48.506;9.050;2023-08-01T16:12:54;25.20;92.20
13488;DHT22;6816;48.506;9.050;2023-08-01T16:15:54;25.20;91.70
13488;DHT22;6816;48.506;9.050;2023-08-01T16:18:55;25.20;91.30
13488;DHT22;6816;48.506;9.050;2023-08-01T16:21:55;25.20;91.10
13488;DHT22;6816;48.506;9.050;2023-08-01T16:24:56;25.10;90.80
13488;DHT22;6816;48.506;9.050;2023-08-01T16:27:57;25.00;90.70
13488;DHT22;6816;48.506;9.050;2023-08-01T16:30:57;25.00;90.60
13488;DHT22;6816;48.506;9.050;2023-08-01T16:33:58;24.90;90.60
13488;DHT22;6816;48.506;9.050;2023-08-01T16:36:58;24.80;90.50
13488;DHT22;6816;48.506;9.050;2023-08-01T16:40:01;24.80;90.50
13488;DHT22;6816;48.506;9.050;2023-08-01T16:43:02;24.70;90.40
13488;DHT22;6816;48.506;9.050;2023-08-01T16:46:02;24.70;90.60
13488;DHT22;6816;48.506;9.050;2023-08-01T16:49:03;24.60;90.60
13488;DHT22;6816;48.506;9.050;2023-08-01T16:52:04;24.50;90.50
13488;DHT22;6816;48.506;9.050;2023-08-01T16:55:05;24.50;90.40
13488;DHT22;6816;48.506;9.050;2023-08-01T16:58:06;24.50;90.50
13488;DHT22;6816;48.506;9.050;2023-08-01T17:01:06;24.50;90.60
13488;DHT22;6816;48.506;9.050;2023-08-01T17:04:08;24.40;90.60
13488;DHT22;6816;48.506;9.050;2023-08-01T17:07:09;24.40;90.50
13488;DHT22;6816;48.506;9.050;2023-08-01T17:10:09;24.40;90.40
13488;DHT22;6816;48.506;9.050;2023-08-01T17:13:10;24.40;90.40
13488;DHT22;6816;48.506;9.050;2023-08-01T17:16:11;24.30;90.40
13488;DHT22;6816;48.506;9.050;2023-08-01T17:19:15;24.30;90.30
13488;DHT22;6816;48.506;9.050;2023-08-01T17:22:15;24.30;88.00
13488;DHT22;6816;48.506;9.050;2023-08-01T17:25:16;24.20;90.00
13488;DHT22;6816;48.506;9.050;2023-08-01T17:28:16;24.20;89.40
13488;DHT22;6816;48.506;9.050;2023-08-01T17:31:17;24.20;89.20
13488;DHT22;6816;48.506;9.050;2023-08-01T17:34:18;24.10;89.00
13488;DHT22;6816;48.506;9.050;2023-08-01T17:37:18;24.00;89.20
13488;DHT22;6816;48.506;9.050;2023-08-01T17:40:19;24.10;89.30
13488;DHT22;6816;48.506;9.050;2023-08-01T17:43:20;23.90;89.70
13488;DHT22;6816;48.506;9.050;2023-08-01T17:46:20;23.90;90.10
13488;DHT22;6816;48.506;9.050;2023-08-01T17:49:21;23.80;89.40
13488;DHT22;6816;48.506;9.050;2023-08-01T17:52:21;23.80;89.00
13488;DHT22;6816;48.506;9.050;2023-08-01T17:55:22;23.70;88.90
13488;DHT22;6816;48.506;9.050;2023-08-01T17:58:23;23.70;88.90
13488;DHT22;6816;48.506;9.050;2023-08-01T18:01:24;23.60;88.30
13488;DHT22;6816;48.506;9.050;2023-08-01T18:04:25;23.60;88.20
13488;DHT22;6816;48.506;9.050;2023-08-01T18:07:25;23.60;88.60
13488;DHT22;6816;48.506;9.050;2023-08-01T18:10:26;23.50;88.70
13488;DHT22;6816;48.506;9.050;2023-08-01T18:13:31;23.50;88.80
13488;DHT22;6816;48.506;9.050;2023-08-01T18:16:31;23.40;89.00
13488;DHT22;6816;48.506;9.050;2023-08-01T18:19:32;23.40;88.90
13488;DHT22;6816;48.506;9.050;2023-08-01T18:22:33;23.30;89.30
13488;DHT22;6816;48.506;9.050;2023-08-01T18:25:34;23.30;89.50
13488;DHT22;6816;48.506;9.050;2023-08-01T18:28:34;23.20;89.80
13488;DHT22;6816;48.506;9.050;2023-08-01T18:31:35;23.20;89.80
13488;DHT22;6816;48.506;9.050;2023-08-01T18:34:36;23.10;89.80
13488;DHT22;6816;48.506;9.050;2023-08-01T18:37:37;23.00;89.40
13488;DHT22;6816;48.506;9.050;2023-08-01T18:40:38;23.00;90.10
13488;DHT22;6816;48.506;9.050;2023-08-01T18:43:39;22.90;89.60
13488;DHT22;6816;48.506;9.050;2023-08-01T18:46:40;22.80;89.70
13488;DHT22;6816;48.506;9.050;2023-08-01T18:49:41;22.60;89.50
13488;DHT22;6816;48.506;9.050;2023-08-01T18:52:46;22.60;89.70
13488;DHT22;6816;48.506;9.050;2023-08-01T18:55:49;22.50;88.40
13488;DHT22;6816;48.506;9.050;2023-08-01T18:58:50;22.40;89.80
13488;DHT22;6816;48.506;9.050;2023-08-01T19:01:50;22.20;89.80
13488;DHT22;6816;48.506;9.050;2023-08-01T19:04:51;22.10;89.80
13488;DHT22;6816;48.506;9.050;2023-08-01T19:07:52;22.00;89.80
13488;DHT22;6816;48.506;9.050;2023-08-01T19:10:53;21.90;89.90
13488;DHT22;6816;48.506;9.050;2023-08-01T19:13:54;21.80;89.90
13488;DHT22;6816;48.506;9.050;2023-08-01T19:16:55;21.70;89.90
13488;DHT22;6816;48.506;9.050;2023-08-01T19:19:56;21.50;90.00
13488;DHT22;6816;48.506;9.050;2023-08-01T19:22:57;21.40;90.10